Weather at Letiště Ústí Nad Orlicí

Public forecast

Using degrees Celsius for public forecast. Weather courtesy of forecast.io.

Closest aviation weather report (METAR) to Letiště Ústí Nad Orlicí

Closest report is Pardubice Airport, 26.6 nm (49.3 km) W. Retrieved 2020/11/27 22:30 UTC (0 seconds ago):

LKPD 272230Z VRB02KT 0800 R27/P2000N FG OVC002 02/02 Q1022

Closest aviation forecast (TAF) to Letiště Ústí Nad Orlicí

Closest forecast is Pardubice Airport, 26.6 nm (49.3 km) W. Retrieved 2020/11/27 18:00 UTC (4 hours ago):

TAF LKPD 271700Z 2718/2818 VRB02KT 4000 BR BKN005 OVC010 TEMPO 2718/2809 2000 DZ BR BKN002 OVC004 PROB40 TEMPO 2719/2808 0300 FG VV001 TEMPO 2810/2818 6000 SCT020